»·PEaware :: N112PC KLWS-KBFI

N112PC :: KLWS-KBFI

FLIGHT INFORMATION

Flight Status: Arrived
Operator: Privately registered:
United States
More flights under this callsign
Pilot: Gabor H. (24209)
Aircraft: PILATUS PC-12 EAGLE
(PC12)
More flights by this aircraft type
Origin: KLWS Lewiston-Nez Perce Co
United States
Destination: KBFI Boeing Field/King Co Intl
United States
More flights between these airports :: More routes between these airports
Route: +YKM V4 CHINS CHINS3
File this flight plan on PilotEdge
Remarks:
Altitude:
(Current/Filed)
16,000ft
Speed:
(Current/Filed)
260kts
Departed: 01-Jun-19 11:02 AM
Arrived: 01-Jun-19 12:12 PM
Distance/Time
Traveled:
227nm/1:10
Distance/Time
To Go:
Arrived

Flight Plot

Page will automatically refresh every two minutes.

Flight plan parsing failed; only flown route is shown


Map Options




Map Legend


Flown Route
Filed Route
Departure Airport
Arrival Airport
Navaid (VOR, NDB)
Fix

Horizontal Profiles

Position Reports

Time Latitude Longitude Heading Altitude Ground
Speed
01-Jun-19 10:39 46.376574 -117.019505 42 1441ft 0kts
01-Jun-19 10:40 46.376574 -117.019505 42 1441ft 0kts
01-Jun-19 10:41 46.376574 -117.019505 42 1441ft 0kts
01-Jun-19 10:42 46.376574 -117.019505 42 1441ft 0kts
01-Jun-19 10:43 46.376574 -117.019505 42 1441ft 0kts
01-Jun-19 10:44 46.376574 -117.019505 42 1441ft 0kts
01-Jun-19 10:45 46.376574 -117.019505 42 1441ft 0kts
01-Jun-19 10:46 46.376574 -117.019505 42 1441ft 0kts
01-Jun-19 10:47 46.376574 -117.019505 42 1441ft 0kts
01-Jun-19 10:48 46.376574 -117.019505 42 1441ft 0kts
01-Jun-19 10:49 46.376574 -117.019505 42 1441ft 0kts
01-Jun-19 10:50 46.376574 -117.019505 42 1441ft 0kts
01-Jun-19 10:51 46.376574 -117.019505 42 1441ft 0kts
01-Jun-19 10:52 46.376574 -117.019505 42 1441ft 0kts
01-Jun-19 10:53 46.376574 -117.019505 42 1441ft 0kts
01-Jun-19 10:54 46.376574 -117.019505 42 1441ft 0kts
01-Jun-19 10:55 46.376574 -117.019505 42 1441ft 0kts
01-Jun-19 10:56 46.376580 -117.019497 42 1441ft 0kts
01-Jun-19 10:57 46.375730 -117.018965 197 1441ft 2kts
01-Jun-19 10:58 46.374471 -117.023965 279 1441ft 24kts
01-Jun-19 10:59 46.374536 -117.027116 196 1441ft 0kts
01-Jun-19 11:00 46.374536 -117.027116 196 1441ft 0kts
01-Jun-19 11:01 46.372945 -117.019291 98 1455ft 100kts
01-Jun-19 11:02 46.351001 -117.009316 247 2926ft 152kts
01-Jun-19 11:03 46.367030 -117.066288 293 4449ft 159kts
01-Jun-19 11:04 46.368823 -117.133633 264 5983ft 190kts
01-Jun-19 11:05 46.364808 -117.214828 266 7503ft 211kts
01-Jun-19 11:06 46.360685 -117.302782 265 9015ft 227kts
01-Jun-19 11:07 46.357918 -117.395200 273 10517ft 232kts
01-Jun-19 11:08 46.364346 -117.488551 276 12018ft 234kts
01-Jun-19 11:09 46.371114 -117.583193 276 13523ft 237kts
01-Jun-19 11:10 46.377237 -117.670006 276 14880ft 242kts
01-Jun-19 11:11 46.384124 -117.770128 276 15992ft 260kts
01-Jun-19 11:12 46.391360 -117.876783 276 16039ft 270kts
01-Jun-19 11:13 46.398793 -117.985493 276 16035ft 271kts
01-Jun-19 11:14 46.406142 -118.094436 276 16032ft 273kts
01-Jun-19 11:15 46.413882 -118.204293 277 16025ft 275kts
01-Jun-19 11:16 46.421787 -118.316042 277 16020ft 275kts
01-Jun-19 11:17 46.429573 -118.426015 277 16016ft 274kts
01-Jun-19 11:18 46.436847 -118.536736 276 16003ft 275kts
01-Jun-19 11:19 46.443609 -118.646763 276 16003ft 273kts
01-Jun-19 11:20 46.449710 -118.745601 276 15999ft 273kts
01-Jun-19 11:21 46.456514 -118.855274 276 15994ft 273kts
01-Jun-19 11:22 46.463377 -118.965157 276 15990ft 272kts
01-Jun-19 11:23 46.470115 -119.075355 276 15979ft 273kts
01-Jun-19 11:24 46.476816 -119.184712 276 15983ft 272kts
01-Jun-19 11:25 46.483548 -119.293655 276 15969ft 272kts
01-Jun-19 11:26 46.490627 -119.403906 276 15975ft 271kts
01-Jun-19 11:27 46.498211 -119.512737 276 15976ft 271kts
01-Jun-19 11:28 46.505859 -119.621521 276 15980ft 271kts
01-Jun-19 11:29 46.513909 -119.730150 277 15984ft 270kts
01-Jun-19 11:30 46.518927 -119.798576 277 15986ft 270kts
01-Jun-19 11:31 46.525317 -119.884714 277 15990ft 270kts
01-Jun-19 11:32 46.533390 -119.993073 277 15993ft 270kts
01-Jun-19 11:33 46.541249 -120.101662 277 15996ft 271kts
01-Jun-19 11:34 46.549296 -120.210480 277 15998ft 271kts
01-Jun-19 11:35 46.558308 -120.319178 278 16000ft 271kts
01-Jun-19 11:36 46.573269 -120.425940 297 16003ft 269kts
01-Jun-19 11:37 46.612094 -120.519005 302 15925ft 271kts
01-Jun-19 11:38 46.653992 -120.610055 305 15834ft 269kts
01-Jun-19 11:39 46.696174 -120.700012 303 15840ft 269kts
01-Jun-19 11:40 46.738733 -120.789374 306 15849ft 268kts
01-Jun-19 11:41 46.781370 -120.878401 304 15858ft 267kts
01-Jun-19 11:42 46.824237 -120.968517 306 15866ft 268kts
01-Jun-19 11:43 46.867768 -121.057473 305 15505ft 272kts
01-Jun-19 11:44 46.910844 -121.148738 304 14406ft 273kts
01-Jun-19 11:45 46.953711 -121.241055 303 13310ft 274kts
01-Jun-19 11:46 46.996419 -121.334138 303 12063ft 276kts
01-Jun-19 11:47 47.038254 -121.426940 302 10664ft 269kts
01-Jun-19 11:48 47.079058 -121.517313 304 9990ft 258kts
01-Jun-19 11:49 47.120090 -121.603753 303 9987ft 259kts
01-Jun-19 11:50 47.160196 -121.692003 302 9988ft 259kts
01-Jun-19 11:51 47.199822 -121.781991 303 9979ft 259kts
01-Jun-19 11:52 47.242116 -121.870745 304 8986ft 262kts
01-Jun-19 11:53 47.282995 -121.956578 313 8004ft 250kts
01-Jun-19 11:54 47.338056 -122.018402 324 7574ft 243kts
01-Jun-19 11:55 47.387239 -122.069879 324 7069ft 202kts
01-Jun-19 11:56 47.436213 -122.110093 333 5574ft 198kts
01-Jun-19 11:57 47.485356 -122.144059 334 4068ft 191kts
01-Jun-19 11:58 47.532408 -122.176548 334 3007ft 178kts
01-Jun-19 11:59 47.577759 -122.207760 334 2988ft 182kts
01-Jun-19 12:01 47.623615 -122.239364 334 2994ft 183kts
01-Jun-19 12:02 47.670215 -122.271544 334 2992ft 185kts
01-Jun-19 12:03 47.717096 -122.303957 334 2992ft 185kts
01-Jun-19 12:04 47.761765 -122.340426 302 2987ft 184kts
01-Jun-19 12:05 47.750468 -122.411204 244 2728ft 186kts
01-Jun-19 12:06 47.709706 -122.440829 179 2199ft 175kts
01-Jun-19 12:07 47.663978 -122.419172 148 2191ft 174kts
01-Jun-19 12:08 47.623420 -122.381339 151 1956ft 177kts
01-Jun-19 12:09 47.587396 -122.350911 151 1137ft 121kts
01-Jun-19 12:10 47.561255 -122.328901 151 590ft 100kts
01-Jun-19 12:11 47.538369 -122.309528 151 24ft 72kts
01-Jun-19 12:12 47.533984 -122.304831 91 21ft 0kts
01-Jun-19 12:13 47.533911 -122.303098 97 21ft 0kts
01-Jun-19 12:14 47.531350 -122.300451 150 21ft 18kts
01-Jun-19 12:15 47.526913 -122.298204 152 21ft 22kts
01-Jun-19 12:16 47.523071 -122.293853 128 21ft 6kts
01-Jun-19 12:17 47.522875 -122.293716 159 21ft 0kts
01-Jun-19 12:17 47.522875 -122.293716 159 21ft 0kts

Navigation Log

Ident Type
Flight plan parsing failed, navigation log unavailable